createdAt,value
2023-02-09T00:01:16.327Z,101190.53
2023-02-09T00:03:43.543Z,101201.81
2023-02-09T00:06:12.504Z,101195.72
2023-02-09T00:08:39.147Z,101207.00
2023-02-09T00:11:06.424Z,101206.94
2023-02-09T00:13:33.351Z,101202.59
2023-02-09T00:16:03.980Z,101206.94
2023-02-09T00:18:32.374Z,101197.47
2023-02-09T00:21:00.307Z,101203.50
2023-02-09T00:23:27.662Z,101200.97
2023-02-09T00:25:54.288Z,101200.97
2023-02-09T00:28:21.844Z,101205.31
2023-02-09T00:30:48.548Z,101213.97
2023-02-09T00:33:15.279Z,101217.38
2023-02-09T00:35:42.636Z,101220.06
2023-02-09T00:38:09.957Z,101221.78
2023-02-09T00:40:37.157Z,101232.13
2023-02-09T00:43:04.019Z,101233.88
2023-02-09T00:45:30.815Z,101239.06
2023-02-09T00:50:50.396Z,101255.44
2023-02-09T00:53:17.005Z,101255.41
2023-02-09T00:55:43.547Z,101258.09
2023-02-09T00:58:10.132Z,101264.94
2023-02-09T01:00:36.756Z,101273.63
2023-02-09T01:03:03.385Z,101274.47
2023-02-09T01:05:29.971Z,101278.75
2023-02-09T01:07:56.562Z,101280.53
2023-02-09T01:10:23.262Z,101285.69
2023-02-09T01:12:49.907Z,101278.81
2023-02-09T01:15:16.737Z,101274.47
2023-02-09T01:17:44.628Z,101280.56
2023-02-09T01:20:12.852Z,101280.53
2023-02-09T01:22:39.699Z,101284.88
2023-02-09T01:25:06.534Z,101274.50
2023-02-09T01:27:33.058Z,101273.69
2023-02-09T01:29:59.741Z,101277.13
2023-02-09T01:32:26.428Z,101277.13
2023-02-09T01:34:53.750Z,101286.63
2023-02-09T01:37:20.945Z,101281.47
2023-02-09T01:42:38.825Z,101273.72
2023-02-09T01:45:05.364Z,101265.03
2023-02-09T01:47:32.815Z,101269.34
2023-02-09T01:49:59.406Z,101263.31
2023-02-09T01:52:28.512Z,101276.28
2023-02-09T01:54:58.019Z,101266.75
2023-02-09T01:57:27.910Z,101261.59
2023-02-09T01:59:57.273Z,101267.63
2023-02-09T02:02:24.253Z,101266.75
2023-02-09T02:04:51.496Z,101271.06
2023-02-09T02:07:25.343Z,101272.81
2023-02-09T02:09:52.479Z,101273.66
2023-02-09T02:12:19.055Z,101260.72
2023-02-09T02:14:45.710Z,101256.41
2023-02-09T02:17:30.598Z,101246.03
2023-02-09T02:20:12.509Z,101246.94
2023-02-09T02:22:51.429Z,101245.22
2023-02-09T02:25:33.319Z,101248.66
2023-02-09T02:28:11.935Z,101253.84
2023-02-09T02:30:48.169Z,101240.88
2023-02-09T02:33:23.418Z,101239.16
2023-02-09T02:36:12.993Z,101236.59
2023-02-09T02:38:45.768Z,101239.16
2023-02-09T02:41:21.517Z,101245.22
2023-02-09T02:43:48.053Z,101244.38
2023-02-09T02:46:17.809Z,101248.66
2023-02-09T02:48:48.244Z,101250.41
2023-02-09T02:51:22.848Z,101248.69
2023-02-09T02:53:56.274Z,101260.81
2023-02-09T02:56:34.826Z,101258.19
2023-02-09T02:59:06.777Z,101262.50
2023-02-09T03:01:46.462Z,101272.00
2023-02-09T03:04:14.489Z,101272.88
2023-02-09T03:06:41.021Z,101272.88
2023-02-09T03:09:07.680Z,101275.50
2023-02-09T03:11:39.640Z,101272.88
2023-02-09T03:14:09.091Z,101280.66
2023-02-09T03:16:35.622Z,101268.59
2023-02-09T03:19:21.064Z,101271.16
2023-02-09T03:22:05.910Z,101259.06
2023-02-09T03:24:39.241Z,101272.88
2023-02-09T03:27:14.882Z,101272.88
2023-02-09T03:29:43.411Z,101272.88
2023-02-09T03:32:10.252Z,101266.84
2023-02-09T03:34:36.792Z,101268.56
2023-02-09T03:37:03.628Z,101267.72
2023-02-09T03:39:30.233Z,101263.41
2023-02-09T03:41:56.838Z,101278.06
2023-02-09T03:44:29.256Z,101274.59
2023-02-09T03:47:06.289Z,101264.22
2023-02-09T03:49:34.650Z,101259.94
2023-02-09T03:52:02.160Z,101256.50
2023-02-09T03:54:29.870Z,101264.25
2023-02-09T03:56:56.812Z,101267.72
2023-02-09T03:59:25.330Z,101270.28
2023-02-09T04:01:52.686Z,101272.03
2023-02-09T04:04:19.682Z,101267.69
2023-02-09T04:06:46.682Z,101265.97
2023-02-09T04:09:13.354Z,101282.34
2023-02-09T04:11:39.925Z,101278.03
2023-02-09T04:14:09.122Z,101263.38
2023-02-09T04:16:36.440Z,101269.41
2023-02-09T04:19:03.672Z,101265.94
2023-02-09T04:21:30.292Z,101265.94
2023-02-09T04:23:56.834Z,101270.19
2023-02-09T04:26:23.704Z,101283.13
2023-02-09T04:28:50.298Z,101278.00
2023-02-09T04:31:17.013Z,101268.50
2023-02-09T04:33:43.627Z,101273.66
2023-02-09T04:36:10.278Z,101279.66
2023-02-09T04:38:36.886Z,101284.81
2023-02-09T04:41:03.904Z,101283.94
2023-02-09T04:43:31.008Z,101274.44
2023-02-09T04:45:58.071Z,101276.19
2023-02-09T04:48:25.780Z,101276.16
2023-02-09T04:50:52.786Z,101273.59
2023-02-09T04:53:20.329Z,101284.75
2023-02-09T04:55:47.436Z,101271.81
2023-02-09T04:58:34.294Z,101281.31
2023-02-09T05:01:01.202Z,101283.06
2023-02-09T05:03:28.305Z,101283.00
2023-02-09T05:05:55.989Z,101274.47
2023-02-09T05:08:23.058Z,101273.59
2023-02-09T05:10:51.011Z,101263.22
2023-02-09T05:13:17.953Z,101261.47
2023-02-09T05:15:44.659Z,101267.50
2023-02-09T05:18:11.198Z,101275.28
2023-02-09T05:20:37.910Z,101280.41
2023-02-09T05:23:04.543Z,101272.75
2023-02-09T05:25:31.485Z,101290.88
2023-02-09T05:27:58.096Z,101284.00
2023-02-09T05:30:26.657Z,101296.94
2023-02-09T05:32:53.699Z,101287.47
2023-02-09T05:35:20.425Z,101305.59
2023-02-09T05:37:46.991Z,101313.34
2023-02-09T05:40:14.005Z,101313.34
2023-02-09T05:42:41.120Z,101316.78
2023-02-09T05:45:08.444Z,101316.81
2023-02-09T05:47:35.194Z,101306.47
2023-02-09T05:50:01.989Z,101310.75
2023-02-09T05:52:28.664Z,101312.50
2023-02-09T05:54:55.258Z,101314.22
2023-02-09T05:57:21.853Z,101319.41
2023-02-09T05:59:48.478Z,101323.69
2023-02-09T06:02:15.085Z,101323.66
2023-02-09T06:04:41.669Z,101318.47
2023-02-09T06:07:09.977Z,101321.06
2023-02-09T06:09:38.209Z,101313.31
2023-02-09T06:12:04.929Z,101308.16
2023-02-09T06:14:31.523Z,101303.81
2023-02-09T06:16:58.087Z,101287.47
2023-02-09T06:19:24.773Z,101272.78
2023-02-09T06:21:51.387Z,101281.38
2023-02-09T06:24:18.006Z,101285.72
2023-02-09T06:26:44.841Z,101281.41
2023-02-09T06:29:11.614Z,101293.50
2023-02-09T06:31:38.514Z,101278.84
2023-02-09T06:34:05.947Z,101282.31
2023-02-09T06:36:32.650Z,101282.28
2023-02-09T06:38:59.211Z,101277.13
2023-02-09T06:41:25.737Z,101274.50
2023-02-09T06:43:52.401Z,101273.66
2023-02-09T06:46:19.037Z,101285.72
2023-02-09T06:48:45.674Z,101282.22
2023-02-09T06:51:13.894Z,101292.56
2023-02-09T06:53:40.890Z,101294.22
2023-02-09T06:56:07.508Z,101303.75
2023-02-09T06:58:34.540Z,101298.56
2023-02-09T07:01:01.825Z,101308.94
2023-02-09T07:03:28.391Z,101306.34
2023-02-09T07:05:54.939Z,101301.19
2023-02-09T07:08:21.592Z,101304.63
2023-02-09T07:10:48.182Z,101311.53
2023-02-09T07:13:14.738Z,101311.53
2023-02-09T07:15:44.162Z,101308.13
2023-02-09T07:18:11.195Z,101312.44
2023-02-09T07:20:37.771Z,101316.72
2023-02-09T07:23:04.462Z,101314.16
2023-02-09T07:25:32.117Z,101317.59
2023-02-09T07:27:58.816Z,101327.97
2023-02-09T07:30:25.372Z,101321.97
2023-02-09T07:32:51.913Z,101312.47
2023-02-09T07:35:18.588Z,101307.28
2023-02-09T07:37:45.249Z,101315.94
2023-02-09T07:40:12.457Z,101317.63
2023-02-09T07:42:39.007Z,101309.91
2023-02-09T07:45:05.691Z,101316.81
2023-02-09T07:47:32.359Z,101313.38
2023-02-09T07:49:58.944Z,101313.34
2023-02-09T07:52:25.509Z,101309.94
2023-02-09T07:54:52.062Z,101309.09
2023-02-09T07:57:18.681Z,101323.78
2023-02-09T07:59:45.284Z,101316.88
2023-02-09T08:02:17.057Z,101308.25
2023-02-09T08:04:44.761Z,101316.91
2023-02-09T08:07:11.369Z,101321.25
2023-02-09T08:09:37.946Z,101335.91
2023-02-09T08:12:05.441Z,101341.97
2023-02-09T08:14:38.441Z,101354.03
2023-02-09T08:17:28.026Z,101346.28
2023-02-09T08:19:59.272Z,101342.81
2023-02-09T08:22:28.452Z,101343.69
2023-02-09T08:24:55.139Z,101345.38
2023-02-09T08:27:22.827Z,101354.88
2023-02-09T08:29:49.370Z,101357.47
2023-02-09T08:32:16.017Z,101357.47
2023-02-09T08:34:42.591Z,101360.94
2023-02-09T08:37:09.185Z,101352.28
2023-02-09T08:39:35.731Z,101354.03
2023-02-09T08:42:02.273Z,101374.75
2023-02-09T08:44:28.817Z,101372.16
2023-02-09T08:46:55.567Z,101353.03
2023-02-09T08:49:22.195Z,101355.50
2023-02-09T08:51:48.727Z,101355.34
2023-02-09T08:54:16.089Z,101364.69
2023-02-09T08:56:43.606Z,101364.59
2023-02-09T08:59:10.307Z,101369.88
2023-02-09T09:01:39.031Z,101371.56
2023-02-09T09:04:05.964Z,101378.53
2023-02-09T09:06:32.935Z,101385.38
2023-02-09T09:08:59.552Z,101377.50
2023-02-09T09:11:26.114Z,101386.97
2023-02-09T09:13:52.646Z,101377.53
2023-02-09T09:16:22.865Z,101380.88
2023-02-09T09:18:49.545Z,101385.25
2023-02-09T09:21:16.969Z,101396.63
2023-02-09T09:23:44.134Z,101398.47
2023-02-09T09:26:10.849Z,101394.97
2023-02-09T09:28:37.640Z,101394.91
2023-02-09T09:31:08.458Z,101390.59
2023-02-09T09:33:35.044Z,101400.06
2023-02-09T09:36:02.372Z,101401.66
2023-02-09T09:38:29.217Z,101385.13
2023-02-09T09:40:56.455Z,101392.88
2023-02-09T09:43:27.930Z,101397.16
2023-02-09T09:45:54.642Z,101393.59
2023-02-09T09:48:25.881Z,101390.13
2023-02-09T09:51:07.283Z,101398.75
2023-02-09T09:53:35.285Z,101392.66
2023-02-09T09:56:07.008Z,101400.25
2023-02-09T09:58:34.390Z,101394.91
2023-02-09T10:01:01.231Z,101397.56
2023-02-09T10:03:27.827Z,101404.28
2023-02-09T10:06:01.232Z,101396.41
2023-02-09T10:08:57.550Z,101404.88
2023-02-09T10:11:29.303Z,101405.00
2023-02-09T10:13:56.938Z,101405.09
2023-02-09T10:16:35.260Z,101416.28
2023-02-09T10:19:03.016Z,101429.25
2023-02-09T10:21:31.604Z,101424.84
2023-02-09T10:24:01.191Z,101436.97
2023-02-09T10:26:27.748Z,101429.22
2023-02-09T10:28:56.270Z,101436.00
2023-02-09T10:31:25.342Z,101417.72
2023-02-09T10:34:10.261Z,101422.94
2023-02-09T10:36:37.955Z,101410.75
2023-02-09T10:39:12.762Z,101419.41
2023-02-09T10:41:40.867Z,101425.38
2023-02-09T10:44:27.733Z,101429.66
2023-02-09T10:47:17.347Z,101441.06
2023-02-09T10:49:43.885Z,101461.97
2023-02-09T10:52:13.503Z,101450.66
2023-02-09T10:54:56.938Z,101453.25
2023-02-09T10:57:25.519Z,101463.59
2023-02-09T10:59:59.737Z,101478.25
2023-02-09T11:02:30.814Z,101482.41
2023-02-09T11:04:57.432Z,101474.47
2023-02-09T11:07:27.866Z,101491.81
2023-02-09T11:09:55.780Z,101490.22
2023-02-09T11:12:24.782Z,101501.22
2023-02-09T11:14:51.354Z,101502.78
2023-02-09T11:17:20.634Z,101493.16
2023-02-09T11:19:55.471Z,101505.22
2023-02-09T11:22:34.066Z,101504.53
2023-02-09T11:25:19.029Z,101503.31
2023-02-09T11:28:04.501Z,101504.03
2023-02-09T11:30:34.257Z,101505.78
2023-02-09T11:33:19.721Z,101497.97
2023-02-09T11:35:58.516Z,101516.28
2023-02-09T11:38:45.295Z,101508.38
2023-02-09T11:41:32.864Z,101509.41
2023-02-09T11:44:01.417Z,101524.09
2023-02-09T11:46:30.973Z,101508.31
2023-02-09T11:49:00.505Z,101518.06
2023-02-09T11:51:27.147Z,101519.56
2023-02-09T11:54:07.474Z,101516.00
2023-02-09T11:56:41.870Z,101516.69
2023-02-09T11:59:08.564Z,101520.09
2023-02-09T12:01:53.660Z,101519.78
2023-02-09T12:04:39.041Z,101510.34
2023-02-09T12:07:12.086Z,101508.31
2023-02-09T12:09:50.292Z,101506.53
2023-02-09T12:12:33.185Z,101515.22
2023-02-09T12:15:02.783Z,101500.47
2023-02-09T12:17:29.283Z,101496.59
2023-02-09T12:32:43.888Z,101511.72
2023-02-09T12:35:24.088Z,101521.41
2023-02-09T12:38:09.064Z,101541.66
2023-02-09T12:40:36.799Z,101529.53
2023-02-09T12:43:09.819Z,101516.25
2023-02-09T12:45:40.774Z,101514.34
2023-02-09T12:48:07.328Z,101491.22
2023-02-09T12:50:43.143Z,101499.63
2023-02-09T12:53:21.743Z,101492.47
2023-02-09T12:56:06.632Z,101496.16
2023-02-09T12:58:53.805Z,101500.09
2023-02-09T13:01:20.868Z,101515.69
2023-02-09T13:03:47.563Z,101515.84
2023-02-09T13:06:23.264Z,101534.22
2023-02-09T13:08:53.413Z,101531.75
2023-02-09T13:11:25.716Z,101528.84
2023-02-09T13:13:57.803Z,101533.13
2023-02-09T13:16:24.457Z,101537.47
2023-02-09T13:19:08.115Z,101539.16
2023-02-09T13:21:53.599Z,101538.53
2023-02-09T13:24:23.453Z,101521.56
2023-02-09T13:26:54.106Z,101526.75
2023-02-09T13:29:22.617Z,101526.91
2023-02-09T13:31:54.794Z,101522.41
2023-02-09T13:34:30.879Z,101526.69
2023-02-09T13:37:00.541Z,101527.03
2023-02-09T13:39:27.990Z,101526.53
2023-02-09T13:54:02.295Z,101520.53
2023-02-09T13:56:31.010Z,101458.47
2023-02-09T13:58:58.214Z,101539.59
2023-02-09T14:01:30.133Z,101503.63
2023-02-09T14:04:13.652Z,101477.59
2023-02-09T14:06:44.582Z,101549.09
2023-02-09T14:09:17.777Z,101541.28
2023-02-09T14:11:50.029Z,101563.53
2023-02-09T14:14:28.601Z,101484.78
2023-02-09T14:17:26.830Z,101585.63
2023-02-09T14:19:56.424Z,101545.69
2023-02-09T14:22:38.165Z,101541.31
2023-02-09T14:25:14.040Z,101597.09
2023-02-09T14:27:48.457Z,101589.22
2023-02-09T14:30:18.874Z,101521.41
2023-02-09T14:32:48.460Z,101562.72
2023-02-09T14:35:23.112Z,101570.16
2023-02-09T14:37:52.174Z,101580.81
2023-02-09T14:40:28.033Z,101604.09
2023-02-09T14:43:03.680Z,101612.88
2023-02-09T14:45:46.606Z,101551.56
2023-02-09T14:48:23.576Z,101580.81
2023-02-09T14:50:55.764Z,101619.09
2023-02-09T14:53:24.843Z,101550.78
2023-02-09T14:55:53.853Z,101619.13
2023-02-09T14:58:22.583Z,101632.78
2023-02-09T15:00:50.221Z,101607.81
2023-02-09T15:03:16.937Z,101566.47
2023-02-09T15:05:44.453Z,101607.84
2023-02-09T15:08:16.016Z,101588.75
2023-02-09T15:10:50.036Z,101600.25
2023-02-09T15:13:17.032Z,101589.84
2023-02-09T15:15:43.983Z,101623.50
2023-02-09T15:18:17.222Z,101618.56
2023-02-09T15:20:43.907Z,101611.66
2023-02-09T15:23:10.660Z,101616.75
2023-02-09T15:25:38.933Z,101682.22
2023-02-09T15:28:14.810Z,101684.00
2023-02-09T15:30:41.640Z,101645.25
2023-02-09T15:33:12.447Z,101695.16
2023-02-09T15:35:40.972Z,101688.41
2023-02-09T15:38:11.206Z,101671.03
2023-02-09T15:41:02.515Z,101703.19
2023-02-09T15:43:48.072Z,101691.47
2023-02-09T15:46:34.304Z,101645.72
2023-02-09T15:49:01.405Z,101685.34
2023-02-09T15:51:34.032Z,101683.66
2023-02-09T15:54:03.574Z,101662.25
2023-02-09T15:56:30.582Z,101739.13
2023-02-09T15:59:03.628Z,101694.22
2023-02-09T16:01:34.782Z,101715.78
2023-02-09T16:04:13.513Z,101678.72
2023-02-09T16:06:46.682Z,101709.88
2023-02-09T16:09:23.971Z,101706.75
2023-02-09T16:11:50.862Z,101711.81
2023-02-09T16:14:24.536Z,101719.56
2023-02-09T16:16:51.580Z,101766.31
2023-02-09T16:19:18.912Z,101754.22
2023-02-09T16:21:58.679Z,101766.47
2023-02-09T16:24:40.043Z,101773.38
2023-02-09T16:27:35.950Z,101775.25
2023-02-09T16:30:02.756Z,101715.66
2023-02-09T16:32:29.447Z,101701.03
2023-02-09T16:35:07.277Z,101730.50
2023-02-09T16:37:37.855Z,101711.63
2023-02-09T16:40:22.671Z,101783.31
2023-02-09T16:42:50.132Z,101785.97
2023-02-09T16:45:18.669Z,101779.09
2023-02-09T16:47:50.353Z,101757.53
2023-02-09T16:50:20.396Z,101804.16
2023-02-09T16:52:47.456Z,101736.84
2023-02-09T16:55:43.256Z,101803.38
2023-02-09T16:58:13.862Z,101822.59
2023-02-09T17:00:42.390Z,101801.13
2023-02-09T17:03:20.953Z,101805.38
2023-02-09T17:05:51.609Z,101834.59
2023-02-09T17:08:30.558Z,101844.97
2023-02-09T17:10:57.720Z,101802.69
2023-02-09T17:13:24.869Z,101801.03
2023-02-09T17:15:57.622Z,101807.13
2023-02-09T17:18:45.653Z,101834.91
2023-02-09T17:21:19.331Z,101871.22
2023-02-09T17:23:46.164Z,101832.31
2023-02-09T17:26:14.028Z,101858.34
2023-02-09T17:28:41.381Z,101822.06
2023-02-09T17:31:17.720Z,101879.94
2023-02-09T17:33:47.344Z,101885.06
2023-02-09T17:36:30.593Z,101817.69
2023-02-09T17:38:59.241Z,101845.31
2023-02-09T17:41:40.789Z,101889.47
2023-02-09T17:44:28.967Z,101850.56
2023-02-09T17:47:04.502Z,101822.09
2023-02-09T17:49:32.290Z,101842.00
2023-02-09T17:51:59.084Z,101894.69
2023-02-09T17:54:27.854Z,101852.44
2023-02-09T17:56:54.645Z,101877.50
2023-02-09T17:59:21.607Z,101898.31
2023-02-09T18:01:55.260Z,101888.81
2023-02-09T18:04:26.856Z,101911.34
2023-02-09T18:06:54.987Z,101949.44
2023-02-09T18:09:22.670Z,101881.06
2023-02-09T18:11:52.396Z,101952.91
2023-02-09T18:14:21.363Z,101919.19
2023-02-09T18:16:48.775Z,101891.41
2023-02-09T18:19:18.813Z,101899.28
2023-02-09T18:22:04.281Z,101903.78
2023-02-09T18:24:33.771Z,101952.22
2023-02-09T18:27:00.957Z,101934.91
2023-02-09T18:29:30.208Z,101908.94
2023-02-09T18:32:01.792Z,101890.78
2023-02-09T18:34:29.248Z,101888.28
2023-02-09T18:36:55.941Z,101916.03
2023-02-09T18:39:23.887Z,101909.97
2023-02-09T18:41:54.668Z,101935.19
2023-02-09T18:44:28.588Z,101902.25
2023-02-09T18:46:56.313Z,101911.84
2023-02-09T18:49:23.129Z,101883.28
2023-02-09T18:51:52.182Z,101917.91
2023-02-09T18:54:19.107Z,101917.06
2023-02-09T18:56:45.876Z,101908.34
2023-02-09T18:59:12.599Z,101905.81
2023-02-09T19:01:39.893Z,101949.13
2023-02-09T19:04:06.697Z,101912.00
2023-02-09T19:06:35.521Z,101938.84
2023-02-09T19:09:02.558Z,101946.63
2023-02-09T19:11:29.230Z,101939.72
2023-02-09T19:14:14.845Z,101934.53
2023-02-09T19:16:41.552Z,101982.13
2023-02-09T19:19:09.513Z,101937.09
2023-02-09T19:21:36.668Z,101994.28
2023-02-09T19:24:05.116Z,101956.19
2023-02-09T19:26:31.840Z,101963.09
2023-02-09T19:28:58.529Z,101940.56
2023-02-09T19:31:25.456Z,101956.13
2023-02-09T19:33:56.651Z,101935.34
2023-02-09T19:36:24.462Z,102006.41
2023-02-09T19:38:51.269Z,101997.69
2023-02-09T19:41:18.084Z,101976.88
2023-02-09T19:43:44.776Z,101966.47
2023-02-09T19:46:11.928Z,101923.19
2023-02-09T19:48:40.421Z,101995.06
2023-02-09T19:51:07.878Z,101974.22
2023-02-09T19:53:34.933Z,101910.19
2023-02-09T19:56:01.947Z,101959.59
2023-02-09T19:58:29.057Z,101918.03
2023-02-09T20:00:56.241Z,101944.91
2023-02-09T20:03:24.319Z,101947.50
2023-02-09T20:05:51.599Z,101926.75
2023-02-09T20:08:19.901Z,101979.56
2023-02-09T20:10:47.308Z,101968.34
2023-02-09T20:13:14.992Z,101912.03
2023-02-09T20:15:43.792Z,101956.22
2023-02-09T20:18:12.077Z,101925.03
2023-02-09T20:20:41.814Z,101938.03
2023-02-09T20:23:08.978Z,101937.19
2023-02-09T20:25:35.757Z,101906.00
2023-02-09T20:28:02.545Z,101949.31
2023-02-09T20:30:29.421Z,101967.53
2023-02-09T20:32:56.165Z,101978.81
2023-02-09T20:35:22.958Z,101987.50
2023-02-09T20:37:49.837Z,101964.97
2023-02-09T20:40:16.802Z,101965.81
2023-02-09T20:43:02.078Z,101981.44
2023-02-09T20:45:47.226Z,101956.28
2023-02-09T20:48:13.977Z,102020.47
2023-02-09T20:50:40.807Z,101981.41
2023-02-09T20:53:07.602Z,101950.22
2023-02-09T20:55:34.321Z,101971.91
2023-02-09T20:58:01.039Z,101980.59
2023-02-09T21:00:27.828Z,102015.25
2023-02-09T21:02:54.573Z,101983.19
2023-02-09T21:05:21.370Z,101978.84
2023-02-09T21:07:50.473Z,102004.84
2023-02-09T21:10:17.300Z,102023.91
2023-02-09T21:12:43.995Z,101974.47
2023-02-09T21:15:10.721Z,101997.91
2023-02-09T21:17:39.897Z,101991.84
2023-02-09T21:20:06.818Z,101999.66
2023-02-09T21:22:33.551Z,102016.13
2023-02-09T21:25:00.246Z,101985.78
2023-02-09T21:27:26.948Z,101942.41
2023-02-09T21:29:53.605Z,101974.50
2023-02-09T21:32:20.327Z,102003.09
2023-02-09T21:34:47.108Z,101994.41
2023-02-09T21:37:14.777Z,101969.25
2023-02-09T21:39:41.894Z,101961.44
2023-02-09T21:42:28.543Z,101990.03
2023-02-09T21:44:56.036Z,102002.22
2023-02-09T21:47:30.630Z,101964.91
2023-02-09T21:49:57.958Z,101980.50
2023-02-09T21:52:25.441Z,102034.31
2023-02-09T21:54:53.836Z,102030.88
2023-02-09T21:57:21.144Z,102033.44
2023-02-09T21:59:47.815Z,102000.50
2023-02-09T22:02:17.094Z,101981.41
2023-02-09T22:04:45.097Z,102030.84
2023-02-09T22:07:11.911Z,101971.03
2023-02-09T22:09:39.084Z,102023.94
2023-02-09T22:12:05.991Z,102005.72
2023-02-09T22:14:33.533Z,102006.56
2023-02-09T22:17:00.693Z,101963.16
2023-02-09T22:19:27.490Z,101964.03
2023-02-09T22:21:56.823Z,101985.72
2023-02-09T22:24:24.493Z,101980.50
2023-02-09T22:26:51.187Z,101976.16
2023-02-09T22:29:17.988Z,102032.56
2023-02-09T22:31:45.152Z,101982.22
2023-02-09T22:34:11.989Z,101976.16
2023-02-09T22:36:39.945Z,101964.03
2023-02-09T22:39:07.672Z,101971.81
2023-02-09T22:41:35.184Z,101964.91
2023-02-09T22:44:07.782Z,101969.25
2023-02-09T22:46:37.266Z,102020.44
2023-02-09T22:49:09.228Z,102023.91
2023-02-09T22:51:40.930Z,101942.31
2023-02-09T22:54:07.610Z,102030.84
2023-02-09T22:56:34.615Z,101968.34
2023-02-09T22:59:01.944Z,101991.75
2023-02-09T23:01:29.668Z,101983.97
2023-02-09T23:03:57.476Z,101986.53
2023-02-09T23:06:27.442Z,102035.19
2023-02-09T23:09:00.541Z,101990.00
2023-02-09T23:11:28.795Z,102025.63
2023-02-09T23:14:11.600Z,102000.44
2023-02-09T23:16:40.206Z,102027.38
2023-02-09T23:19:08.994Z,102035.19
2023-02-09T23:21:38.884Z,101998.75
2023-02-09T23:24:06.647Z,102016.97
2023-02-09T23:26:33.535Z,102030.88
2023-02-09T23:29:02.708Z,102014.34
2023-02-09T23:31:29.824Z,102005.69
2023-02-09T23:33:56.810Z,101977.91
2023-02-09T23:36:28.051Z,101964.03
2023-02-09T23:38:57.353Z,101986.56
2023-02-09T23:41:25.062Z,102040.38
2023-02-09T23:43:52.712Z,101992.69
2023-02-09T23:46:22.669Z,102026.53
2023-02-09T23:48:49.571Z,101989.22
2023-02-09T23:51:19.434Z,101968.34
2023-02-09T23:53:47.711Z,102014.38
2023-02-09T23:56:16.314Z,102010.91
2023-02-09T23:58:45.070Z,102021.31
